createdAt,value
2022-10-17T00:02:23.549Z,1.90
2022-10-17T00:05:26.224Z,1.88
2022-10-17T00:08:28.769Z,1.85
2022-10-17T00:11:31.315Z,2.00
2022-10-17T00:14:34.599Z,1.90
2022-10-17T00:17:38.835Z,2.00
2022-10-17T00:20:41.357Z,1.85
2022-10-17T00:23:43.853Z,1.95
2022-10-17T00:26:46.325Z,1.90
2022-10-17T00:29:49.933Z,2.10
2022-10-17T00:32:53.862Z,2.00
2022-10-17T00:36:04.587Z,2.30
2022-10-17T00:39:07.208Z,1.95
2022-10-17T00:42:12.243Z,2.40
2022-10-17T00:45:22.946Z,1.70
2022-10-17T00:48:27.015Z,1.90
2022-10-17T00:51:38.088Z,2.42
2022-10-17T00:54:45.371Z,2.07
2022-10-17T00:57:48.228Z,2.28
2022-10-17T01:00:50.723Z,2.10
2022-10-17T01:03:54.583Z,1.70
2022-10-17T01:06:57.052Z,2.17
2022-10-17T01:09:59.791Z,2.35
2022-10-17T01:13:12.369Z,2.10
2022-10-17T01:16:19.902Z,1.85
2022-10-17T01:19:43.917Z,1.83
2022-10-17T01:22:50.584Z,2.08
2022-10-17T01:25:58.499Z,1.92
2022-10-17T01:29:30.484Z,1.90
2022-10-17T01:32:40.205Z,2.03
2022-10-17T01:35:49.256Z,1.92
2022-10-17T01:38:58.333Z,1.80
2022-10-17T01:42:08.942Z,2.20
2022-10-17T01:45:16.718Z,2.00
2022-10-17T01:48:24.965Z,1.40
2022-10-17T01:51:31.861Z,1.92
2022-10-17T01:54:40.856Z,1.88
2022-10-17T01:57:47.279Z,2.03
2022-10-17T02:00:51.543Z,1.88
2022-10-17T02:03:59.188Z,1.80
2022-10-17T02:07:07.343Z,2.15
2022-10-17T02:10:16.872Z,2.28
2022-10-17T02:13:26.466Z,1.90
2022-10-17T02:16:37.012Z,1.73
2022-10-17T02:19:51.404Z,2.15
2022-10-17T02:22:59.508Z,1.90
2022-10-17T02:26:14.279Z,2.33
2022-10-17T02:29:20.136Z,1.80
2022-10-17T02:32:29.251Z,1.80
2022-10-17T02:35:37.404Z,2.17
2022-10-17T02:38:41.757Z,2.22
2022-10-17T02:41:45.446Z,1.92
2022-10-17T02:44:48.688Z,1.90
2022-10-17T02:47:57.527Z,1.63
2022-10-17T02:51:08.595Z,2.17
2022-10-17T02:54:17.392Z,2.03
2022-10-17T02:57:26.186Z,1.80
2022-10-17T06:06:14.558Z,7.07
2022-10-17T06:09:17.056Z,7.88
2022-10-17T06:12:19.555Z,7.65
2022-10-17T06:15:22.013Z,7.85
2022-10-17T06:18:24.508Z,7.68
2022-10-17T06:21:29.282Z,8.45
2022-10-17T06:24:31.760Z,8.05
2022-10-17T06:27:34.240Z,8.65
2022-10-17T06:30:39.007Z,8.35
2022-10-17T06:33:41.908Z,8.35
2022-10-17T06:36:45.728Z,8.85
2022-10-17T06:39:48.228Z,9.65
2022-10-17T06:42:50.710Z,9.27
2022-10-17T06:45:53.202Z,8.65
2022-10-17T06:48:55.706Z,7.90
2022-10-17T06:51:59.512Z,7.20
2022-10-17T06:58:09.733Z,6.75
2022-10-17T07:01:14.076Z,7.32
2022-10-17T07:04:16.565Z,6.95
2022-10-17T07:07:20.399Z,7.25
2022-10-17T07:10:22.974Z,7.18
2022-10-17T07:13:26.064Z,6.78
2022-10-17T07:16:28.732Z,7.07
2022-10-17T07:19:31.305Z,6.78
2022-10-17T07:22:35.256Z,7.57
2022-10-17T07:25:40.163Z,7.43
2022-10-17T07:28:44.923Z,6.60
2022-10-17T07:31:48.800Z,6.40
2022-10-17T07:34:51.260Z,6.28
2022-10-17T07:37:55.075Z,6.57
2022-10-17T07:40:58.308Z,5.32
2022-10-17T07:44:00.771Z,6.32
2022-10-17T07:47:03.373Z,6.47
2022-10-17T07:50:06.665Z,5.97
2022-10-17T07:53:10.370Z,4.97
2022-10-17T07:56:12.981Z,5.50
2022-10-17T07:59:15.559Z,5.50
2022-10-17T08:02:23.461Z,4.97
2022-10-17T08:05:26.040Z,5.00
2022-10-17T08:08:30.247Z,4.20
2022-10-17T08:11:32.772Z,3.88
2022-10-17T08:14:35.458Z,3.78
2022-10-17T08:17:39.255Z,3.35
2022-10-17T08:20:42.059Z,3.70
2022-10-17T08:23:46.011Z,3.88
2022-10-17T08:26:51.667Z,3.60
2022-10-17T08:29:54.732Z,3.78
2022-10-17T08:32:57.248Z,2.97
2022-10-17T08:36:00.391Z,3.85
2022-10-17T08:39:04.865Z,3.50
2022-10-17T08:42:20.417Z,3.72
2022-10-17T08:45:30.572Z,3.05
2022-10-17T08:48:42.631Z,3.58
2022-10-17T08:51:52.874Z,3.25
2022-10-17T08:54:56.848Z,3.30
2022-10-17T08:57:59.342Z,2.80
2022-10-17T09:01:09.144Z,3.15
2022-10-17T09:04:39.313Z,2.90
2022-10-17T09:07:49.859Z,3.13
2022-10-17T09:10:58.670Z,2.72
2022-10-17T09:14:10.275Z,2.83
2022-10-17T09:20:23.161Z,3.10
2022-10-17T09:23:28.931Z,3.22
2022-10-17T09:26:32.847Z,3.05
2022-10-17T09:29:38.033Z,2.90
2022-10-17T09:32:44.074Z,2.50
2022-10-17T09:35:47.719Z,2.95
2022-10-17T09:38:53.708Z,2.22
2022-10-17T09:41:59.909Z,2.72
2022-10-17T09:45:14.725Z,2.30
2022-10-17T09:48:24.099Z,2.97
2022-10-17T09:51:27.470Z,2.88
2022-10-17T09:54:42.471Z,2.40
2022-10-17T09:58:01.338Z,2.50
2022-10-17T10:01:21.118Z,2.83
2022-10-17T10:04:30.205Z,2.22
2022-10-17T10:07:38.983Z,2.25
2022-10-17T10:10:43.159Z,2.67
2022-10-17T10:13:49.120Z,2.30
2022-10-17T10:16:54.468Z,2.30
2022-10-17T10:19:57.412Z,2.67
2022-10-17T10:23:17.345Z,2.40
2022-10-17T10:26:23.877Z,1.83
2022-10-17T10:29:32.229Z,2.78
2022-10-17T10:32:37.744Z,2.25
2022-10-17T10:35:40.606Z,2.40
2022-10-17T10:38:43.405Z,2.33
2022-10-17T10:41:49.703Z,2.03
2022-10-17T10:44:55.836Z,2.00
2022-10-17T10:48:00.671Z,2.63
2022-10-17T10:51:08.957Z,2.20
2022-10-17T10:54:17.546Z,2.45
2022-10-17T10:57:25.317Z,2.50
2022-10-17T11:00:33.167Z,2.53
2022-10-17T11:03:42.304Z,3.00
2022-10-17T11:06:46.923Z,2.42
2022-10-17T11:09:54.131Z,2.40
2022-10-17T11:13:05.048Z,2.58
2022-10-17T11:16:19.790Z,2.38
2022-10-17T11:19:26.684Z,2.10
2022-10-17T11:22:33.120Z,2.35
2022-10-17T11:25:37.939Z,2.53
2022-10-17T11:28:40.481Z,2.65
2022-10-17T11:31:53.962Z,2.92
2022-10-17T11:35:01.873Z,2.28
2022-10-17T11:38:12.231Z,2.38
2022-10-17T11:41:19.943Z,2.20
2022-10-17T11:44:27.746Z,2.42
2022-10-17T11:47:39.213Z,2.33
2022-10-17T11:54:15.204Z,2.30
2022-10-17T11:57:42.681Z,2.58
2022-10-17T12:00:56.056Z,2.83
2022-10-17T12:04:13.763Z,2.38
2022-10-17T12:07:23.287Z,2.35
2022-10-17T12:10:40.017Z,2.33
2022-10-17T12:13:51.832Z,2.53
2022-10-17T12:16:54.654Z,2.28
2022-10-17T12:20:27.354Z,2.03
2022-10-17T12:23:32.651Z,2.50
2022-10-17T12:26:35.141Z,2.72
2022-10-17T12:29:37.634Z,2.30
2022-10-17T12:33:05.560Z,2.22
2022-10-17T12:36:46.002Z,2.70
2022-10-17T12:39:50.347Z,2.67
2022-10-17T12:42:52.860Z,2.40
2022-10-17T12:45:56.435Z,3.20
2022-10-17T12:49:21.554Z,2.38
2022-10-17T12:52:26.689Z,2.58
2022-10-17T12:55:30.652Z,2.53
2022-10-17T12:58:35.000Z,2.50
2022-10-17T13:01:39.845Z,2.80
2022-10-17T13:04:42.510Z,2.30
2022-10-17T13:07:47.971Z,2.72
2022-10-17T13:10:54.613Z,2.22
2022-10-17T13:14:00.045Z,2.35
2022-10-17T13:17:04.224Z,2.33
2022-10-17T13:20:25.452Z,2.33
2022-10-17T13:23:34.689Z,2.70
2022-10-17T13:26:38.524Z,2.03
2022-10-17T13:29:45.698Z,2.33
2022-10-17T13:32:48.236Z,2.45
2022-10-17T13:36:05.925Z,2.50
2022-10-17T13:39:12.424Z,2.35
2022-10-17T13:42:24.843Z,2.33
2022-10-17T13:45:30.647Z,2.63
2022-10-17T13:48:36.217Z,2.97
2022-10-17T13:51:38.811Z,2.33
2022-10-17T13:54:42.604Z,2.67
2022-10-17T13:57:47.172Z,2.95
2022-10-17T14:00:50.797Z,2.80
2022-10-17T14:04:07.140Z,2.85
2022-10-17T14:07:25.499Z,2.90
2022-10-17T14:10:37.692Z,2.80
2022-10-17T14:13:42.125Z,2.83
2022-10-17T14:16:45.434Z,2.40
2022-10-17T14:20:06.577Z,2.53
2022-10-17T14:23:31.149Z,3.25
2022-10-17T14:26:37.260Z,2.50
2022-10-17T14:29:54.117Z,3.35
2022-10-17T14:32:58.988Z,2.70
2022-10-17T14:36:03.621Z,2.97
2022-10-17T14:39:13.430Z,2.70
2022-10-17T14:42:20.588Z,2.78
2022-10-17T14:45:28.053Z,3.00
2022-10-17T14:48:32.067Z,3.30
2022-10-17T14:51:44.765Z,2.92
2022-10-17T14:54:59.027Z,2.95
2022-10-17T14:58:02.090Z,2.80
2022-10-17T15:01:06.079Z,2.85
2022-10-17T15:04:10.737Z,2.60
2022-10-17T15:07:17.514Z,2.90
2022-10-17T15:10:33.903Z,2.42
2022-10-17T15:13:41.203Z,2.40
2022-10-17T15:16:48.555Z,2.75
2022-10-17T15:19:51.283Z,2.55
2022-10-17T15:22:53.786Z,3.10
2022-10-17T15:25:56.299Z,2.53
2022-10-17T15:28:59.088Z,2.40
2022-10-17T15:32:02.948Z,2.30
2022-10-17T15:35:06.025Z,2.40
2022-10-17T15:38:09.785Z,2.25
2022-10-17T15:41:12.551Z,2.20
2022-10-17T15:44:15.404Z,2.40
2022-10-17T15:47:25.035Z,2.33
2022-10-17T15:50:28.991Z,2.42
2022-10-17T15:53:31.464Z,2.58
2022-10-17T15:56:36.988Z,2.40
2022-10-17T15:59:39.499Z,2.00
2022-10-17T16:02:43.703Z,2.92
2022-10-17T16:05:46.187Z,2.40
2022-10-17T16:08:49.469Z,2.58
2022-10-17T16:11:51.956Z,2.47
2022-10-17T16:14:54.517Z,2.53
2022-10-17T16:18:01.652Z,2.28
2022-10-17T16:21:06.859Z,2.45
2022-10-17T16:24:11.269Z,2.17
2022-10-17T16:27:13.804Z,2.80
2022-10-17T16:30:16.693Z,2.45
2022-10-17T16:33:20.499Z,2.63
2022-10-17T16:36:23.518Z,3.10
2022-10-17T16:42:33.375Z,2.78
2022-10-17T16:45:37.173Z,2.70
2022-10-17T16:51:48.362Z,2.80
2022-10-17T16:54:50.841Z,2.92
2022-10-17T16:57:53.375Z,2.97
2022-10-17T17:00:55.894Z,3.00
2022-10-17T17:04:00.086Z,2.65
2022-10-17T17:07:02.563Z,3.35
2022-10-17T17:10:06.288Z,3.13
2022-10-17T17:13:08.741Z,2.60
2022-10-17T17:16:13.003Z,2.58
2022-10-17T17:19:17.751Z,2.78
2022-10-17T17:22:20.225Z,2.65
2022-10-17T17:25:23.346Z,2.88
2022-10-17T17:28:27.072Z,3.17
2022-10-17T17:31:32.668Z,2.70
2022-10-17T17:34:38.037Z,3.20
2022-10-17T17:37:40.560Z,3.20
2022-10-17T17:40:50.741Z,2.70
2022-10-17T17:43:53.770Z,2.92
2022-10-17T17:46:56.202Z,2.58
2022-10-17T17:50:00.308Z,2.97
2022-10-17T17:53:02.779Z,2.92
2022-10-17T17:56:07.428Z,2.53
2022-10-17T17:59:12.566Z,3.10
2022-10-17T18:02:15.446Z,2.80
2022-10-17T18:05:19.481Z,2.72
2022-10-17T18:08:21.998Z,2.92
2022-10-17T18:11:24.594Z,2.70
2022-10-17T18:14:27.044Z,2.83
2022-10-17T18:17:29.513Z,2.60
2022-10-17T18:20:33.427Z,3.00
2022-10-17T18:23:37.714Z,2.53
2022-10-17T18:26:40.189Z,2.75
2022-10-17T18:29:42.729Z,2.72
2022-10-17T18:32:45.173Z,2.58
2022-10-17T18:35:49.018Z,2.70
2022-10-17T18:38:51.462Z,2.80
2022-10-17T18:41:53.894Z,2.72
2022-10-17T18:44:56.315Z,2.83
2022-10-17T18:47:58.757Z,2.50
2022-10-17T18:51:05.166Z,2.45
2022-10-17T18:54:12.180Z,2.80
2022-10-17T18:57:14.643Z,2.22
2022-10-17T19:00:17.493Z,2.08
2022-10-17T19:03:19.984Z,2.72
2022-10-17T19:06:26.048Z,2.63
2022-10-17T19:09:28.503Z,2.88
2022-10-17T19:12:30.949Z,2.20
2022-10-17T19:15:33.505Z,2.55
2022-10-17T19:18:36.838Z,2.47
2022-10-17T19:21:41.020Z,3.03
2022-10-17T19:24:43.551Z,3.00
2022-10-17T19:27:46.051Z,2.42
2022-10-17T19:30:48.502Z,3.25
2022-10-17T19:33:52.748Z,2.70
2022-10-17T19:36:56.653Z,2.75
2022-10-17T19:39:59.119Z,2.47
2022-10-17T19:43:01.570Z,2.72
2022-10-17T19:46:06.497Z,2.67
2022-10-17T19:49:08.956Z,2.80
2022-10-17T19:52:12.712Z,2.53
2022-10-17T19:55:15.193Z,2.40
2022-10-17T19:58:18.106Z,3.00
2022-10-17T20:01:25.249Z,2.72
2022-10-17T20:04:27.826Z,3.65
2022-10-17T20:07:31.603Z,2.78
2022-10-17T20:10:34.079Z,3.17
2022-10-17T20:13:37.847Z,2.33
2022-10-17T20:16:40.311Z,2.53
2022-10-17T20:19:43.016Z,2.70
2022-10-17T20:22:47.140Z,2.80
2022-10-17T20:26:01.036Z,3.28
2022-10-17T20:29:13.696Z,3.60
2022-10-17T20:32:16.167Z,2.90
2022-10-17T20:35:18.834Z,3.17
2022-10-17T20:38:22.571Z,3.10
2022-10-17T20:41:26.176Z,3.40
2022-10-17T20:44:28.632Z,3.83
2022-10-17T20:47:46.107Z,3.38
2022-10-17T20:50:51.743Z,3.53
2022-10-17T20:57:04.931Z,3.67
2022-10-17T21:00:08.697Z,3.15
2022-10-17T21:03:11.140Z,3.20
2022-10-17T21:06:13.674Z,3.78
2022-10-17T21:09:17.490Z,3.47
2022-10-17T21:12:30.881Z,3.60
2022-10-17T21:15:42.460Z,3.75
2022-10-17T21:18:47.441Z,3.95
2022-10-17T21:21:50.165Z,3.58
2022-10-17T21:24:53.943Z,3.67
2022-10-17T21:27:56.376Z,3.55
2022-10-17T21:31:11.391Z,3.78
2022-10-17T21:34:15.772Z,4.40
2022-10-17T21:37:18.275Z,3.50
2022-10-17T21:40:22.039Z,3.95
2022-10-17T21:43:24.912Z,3.95
2022-10-17T21:46:27.884Z,3.53
2022-10-17T21:49:30.488Z,4.03
2022-10-17T21:52:33.272Z,4.13
2022-10-17T21:55:38.613Z,3.75
2022-10-17T21:58:41.827Z,4.28
2022-10-17T22:01:46.706Z,3.63
2022-10-17T22:04:49.237Z,3.60
2022-10-17T22:07:51.701Z,4.15
2022-10-17T22:10:55.480Z,3.67
2022-10-17T22:14:00.241Z,4.57
2022-10-17T22:17:02.676Z,5.22
2022-10-17T22:20:05.764Z,4.55
2022-10-17T22:23:08.345Z,5.28
2022-10-17T22:26:12.941Z,4.93
2022-10-17T22:29:15.547Z,4.82
2022-10-17T22:32:21.521Z,5.20
2022-10-17T22:35:25.278Z,3.88
2022-10-17T22:38:28.108Z,5.25
2022-10-17T22:41:31.946Z,5.30
2022-10-17T22:44:34.389Z,5.03
2022-10-17T22:47:36.847Z,4.40
2022-10-17T22:50:42.534Z,4.93
2022-10-17T22:53:45.014Z,4.70
2022-10-17T22:56:48.803Z,5.10
2022-10-17T22:59:51.270Z,3.80
2022-10-17T23:02:54.640Z,4.35
2022-10-17T23:05:57.623Z,4.65
2022-10-17T23:09:00.220Z,4.70
2022-10-17T23:12:04.337Z,5.65
2022-10-17T23:15:07.675Z,5.15
2022-10-17T23:18:10.619Z,6.22
2022-10-17T23:21:13.181Z,6.47
2022-10-17T23:24:15.887Z,6.15
2022-10-17T23:27:19.691Z,6.28
2022-10-17T23:30:22.550Z,5.95
2022-10-17T23:33:26.096Z,6.75
2022-10-17T23:36:28.532Z,6.25
2022-10-17T23:39:30.991Z,6.55
2022-10-17T23:42:34.884Z,6.22
2022-10-17T23:45:37.463Z,6.93
2022-10-17T23:48:40.986Z,6.75
2022-10-17T23:51:43.430Z,7.07
2022-10-17T23:54:45.905Z,8.07
2022-10-17T23:57:49.672Z,7.13
